createdAt,value
2022-09-03T00:00:13.388Z,99.99
2022-09-03T00:01:13.631Z,99.99
2022-09-03T00:02:13.410Z,99.99
2022-09-03T00:03:13.512Z,99.99
2022-09-03T00:04:13.598Z,99.99
2022-09-03T00:05:13.583Z,99.99
2022-09-03T00:06:13.569Z,99.99
2022-09-03T00:07:13.557Z,99.99
2022-09-03T00:08:13.288Z,99.99
2022-09-03T00:09:14.118Z,99.99
2022-09-03T00:10:17.019Z,99.99
2022-09-03T00:11:13.251Z,99.99
2022-09-03T00:12:13.494Z,99.99
2022-09-03T00:13:13.225Z,99.99
2022-09-03T00:14:13.215Z,99.99
2022-09-03T00:15:13.458Z,99.99
2022-09-03T00:16:13.602Z,99.99
2022-09-03T00:17:14.243Z,99.99
2022-09-03T00:18:13.423Z,99.99
2022-09-03T00:19:13.150Z,99.99
2022-09-03T00:20:13.139Z,99.99
2022-09-03T00:21:13.382Z,99.99
2022-09-03T00:22:13.110Z,99.99
2022-09-03T00:23:13.359Z,99.99
2022-09-03T00:24:16.477Z,99.99
2022-09-03T00:25:13.338Z,99.99
2022-09-03T00:26:13.323Z,99.99
2022-09-03T00:27:13.312Z,99.99
2022-09-03T00:28:13.295Z,99.99
2022-09-03T00:29:13.029Z,99.99
2022-09-03T00:30:18.945Z,99.99
2022-09-03T00:31:13.379Z,99.99
2022-09-03T00:32:12.994Z,99.99
2022-09-03T00:33:12.979Z,99.99
2022-09-03T00:34:13.220Z,99.99
2022-09-03T00:35:13.215Z,99.99
2022-09-03T00:36:12.937Z,99.99
2022-09-03T00:37:18.094Z,99.99
2022-09-03T00:38:12.916Z,99.99
2022-09-03T00:39:13.162Z,99.99
2022-09-03T00:40:12.889Z,99.99
2022-09-03T00:41:12.877Z,99.99
2022-09-03T00:42:13.118Z,99.99
2022-09-03T00:43:12.854Z,99.99
2022-09-03T00:44:14.365Z,99.99
2022-09-03T00:45:13.083Z,99.99
2022-09-03T00:46:13.262Z,99.99
2022-09-03T00:47:12.802Z,99.99
2022-09-03T00:48:14.127Z,99.99
2022-09-03T00:49:13.036Z,99.99
2022-09-03T00:50:13.024Z,99.99
2022-09-03T00:51:12.752Z,99.99
2022-09-03T00:52:12.995Z,99.99
2022-09-03T00:53:12.729Z,99.99
2022-09-03T00:54:12.712Z,99.99
2022-09-03T00:55:12.960Z,99.99
2022-09-03T00:56:12.947Z,99.99
2022-09-03T00:57:12.941Z,99.99
2022-09-03T00:58:13.257Z,99.99
2022-09-03T00:59:12.911Z,99.99
2022-09-03T01:00:12.640Z,99.99
2022-09-03T01:01:12.768Z,99.99
2022-09-03T01:02:12.815Z,99.99
2022-09-03T01:03:12.600Z,99.99
2022-09-03T01:04:12.588Z,99.99
2022-09-03T01:05:12.588Z,99.99
2022-09-03T01:06:12.561Z,99.99
2022-09-03T01:07:12.813Z,99.99
2022-09-03T01:08:12.795Z,99.99
2022-09-03T01:09:12.784Z,99.99
2022-09-03T01:10:12.509Z,99.99
2022-09-03T01:11:12.757Z,99.99
2022-09-03T01:12:12.742Z,99.99
2022-09-03T01:13:12.479Z,99.99
2022-09-03T01:14:12.463Z,99.99
2022-09-03T01:15:12.704Z,99.99
2022-09-03T01:16:12.842Z,99.99
2022-09-03T01:17:12.682Z,99.99
2022-09-03T01:18:12.668Z,99.99
2022-09-03T01:19:13.256Z,99.99
2022-09-03T01:20:12.732Z,99.99
2022-09-03T01:21:12.631Z,99.99
2022-09-03T01:22:12.361Z,99.99
2022-09-03T01:23:12.605Z,99.99
2022-09-03T01:24:12.596Z,99.99
2022-09-03T01:25:12.324Z,99.99
2022-09-03T01:26:12.567Z,99.99
2022-09-03T01:27:12.298Z,99.99
2022-09-03T01:28:12.547Z,99.99
2022-09-03T01:29:12.279Z,99.99
2022-09-03T01:30:12.260Z,99.99
2022-09-03T01:31:12.607Z,99.99
2022-09-03T01:32:12.496Z,99.99
2022-09-03T01:33:12.480Z,99.99
2022-09-03T01:34:12.209Z,99.99
2022-09-03T01:35:12.199Z,99.99
2022-09-03T01:36:12.182Z,99.99
2022-09-03T01:37:12.428Z,99.99
2022-09-03T01:38:12.416Z,99.99
2022-09-03T01:39:12.405Z,99.99
2022-09-03T01:40:12.392Z,99.99
2022-09-03T01:41:12.376Z,99.99
2022-09-03T01:42:12.106Z,99.99
2022-09-03T01:43:12.352Z,99.99
2022-09-03T01:44:12.342Z,99.99
2022-09-03T01:45:12.072Z,99.99
2022-09-03T01:46:12.398Z,99.99
2022-09-03T01:47:14.145Z,99.99
2022-09-03T01:48:12.032Z,99.99
2022-09-03T01:49:12.017Z,99.99
2022-09-03T01:50:12.006Z,99.99
2022-09-03T01:51:12.251Z,99.99
2022-09-03T01:52:12.239Z,99.99
2022-09-03T01:53:11.966Z,99.99
2022-09-03T01:54:21.118Z,99.99
2022-09-03T01:55:12.198Z,99.99
2022-09-03T01:56:12.191Z,99.99
2022-09-03T01:57:37.459Z,99.99
2022-09-03T01:58:12.165Z,99.99
2022-09-03T01:59:12.147Z,99.99
2022-09-03T02:00:12.141Z,99.99
2022-09-03T02:01:11.918Z,99.99
2022-09-03T02:02:12.178Z,99.99
2022-09-03T02:03:12.100Z,99.99
2022-09-03T02:04:11.831Z,99.99
2022-09-03T02:05:11.816Z,99.99
2022-09-03T02:06:12.056Z,99.99
2022-09-03T02:07:12.050Z,99.99
2022-09-03T02:08:13.736Z,99.99
2022-09-03T02:09:11.766Z,99.99
2022-09-03T02:10:12.278Z,99.99
2022-09-03T02:11:11.755Z,99.99
2022-09-03T02:12:12.004Z,99.99
2022-09-03T02:13:11.740Z,99.99
2022-09-03T02:14:11.703Z,99.99
2022-09-03T02:15:11.730Z,99.99
2022-09-03T02:16:12.112Z,99.99
2022-09-03T02:17:11.955Z,99.99
2022-09-03T02:18:11.907Z,99.99
2022-09-03T02:19:11.930Z,99.99
2022-09-03T02:20:11.890Z,99.99
2022-09-03T02:21:11.874Z,99.99
2022-09-03T02:22:12.183Z,99.99
2022-09-03T02:23:11.845Z,99.99
2022-09-03T02:24:11.835Z,99.99
2022-09-03T02:25:11.822Z,99.99
2022-09-03T02:26:11.547Z,99.99
2022-09-03T02:27:11.537Z,99.99
2022-09-03T02:28:19.487Z,99.99
2022-09-03T02:29:11.767Z,99.99
2022-09-03T02:30:11.758Z,99.99
2022-09-03T02:31:11.903Z,99.99
2022-09-03T02:32:11.753Z,99.99
2022-09-03T02:33:11.476Z,99.99
2022-09-03T02:34:11.451Z,99.99
2022-09-03T02:35:11.690Z,99.99
2022-09-03T02:36:11.676Z,99.99
2022-09-03T02:37:11.415Z,99.99
2022-09-03T02:38:11.417Z,99.99
2022-09-03T02:39:11.655Z,99.99
2022-09-03T02:40:11.815Z,99.99
2022-09-03T02:41:11.614Z,99.99
2022-09-03T02:42:12.358Z,99.99
2022-09-03T02:43:11.592Z,99.99
2022-09-03T02:44:11.583Z,99.99
2022-09-03T02:45:11.303Z,99.99
2022-09-03T02:46:11.713Z,99.99
2022-09-03T02:47:11.537Z,99.99
2022-09-03T02:48:11.522Z,99.99
2022-09-03T02:49:11.254Z,99.99
2022-09-03T02:50:11.499Z,99.99
2022-09-03T02:51:16.697Z,99.99
2022-09-03T02:52:11.214Z,99.99
2022-09-03T02:53:11.470Z,99.99
2022-09-03T02:54:11.194Z,99.99
2022-09-03T02:55:11.181Z,99.99
2022-09-03T02:56:11.429Z,99.99
2022-09-03T02:57:11.174Z,99.99
2022-09-03T02:58:11.396Z,99.99
2022-09-03T02:59:11.380Z,99.99
2022-09-03T03:00:11.113Z,99.99
2022-09-03T03:01:11.543Z,99.99
2022-09-03T03:02:11.417Z,99.99
2022-09-03T03:03:11.076Z,99.99
2022-09-03T03:04:11.319Z,99.99
2022-09-03T03:05:11.051Z,99.99
2022-09-03T03:06:11.037Z,99.99
2022-09-03T03:07:11.021Z,99.99
2022-09-03T03:08:11.269Z,99.99
2022-09-03T03:09:11.252Z,99.99
2022-09-03T03:10:11.243Z,99.99
2022-09-03T03:11:11.229Z,99.99
2022-09-03T03:12:10.976Z,99.99
2022-09-03T03:13:11.201Z,99.99
2022-09-03T03:14:10.933Z,99.99
2022-09-03T03:15:10.916Z,99.99
2022-09-03T03:16:11.225Z,99.99
2022-09-03T03:17:11.152Z,99.99
2022-09-03T03:18:11.137Z,99.99
2022-09-03T03:19:11.122Z,99.99
2022-09-03T03:20:10.861Z,99.99
2022-09-03T03:21:11.099Z,99.99
2022-09-03T03:22:11.088Z,99.99
2022-09-03T03:23:10.814Z,99.99
2022-09-03T03:24:10.805Z,99.99
2022-09-03T03:25:10.787Z,99.99
2022-09-03T03:26:11.037Z,99.99
2022-09-03T03:27:11.020Z,99.99
2022-09-03T03:28:11.012Z,99.99
2022-09-03T03:29:10.738Z,99.99
2022-09-03T03:30:10.984Z,99.99
2022-09-03T03:31:10.869Z,99.99
2022-09-03T03:32:10.701Z,99.99
2022-09-03T03:49:48.666Z,99.99
2022-09-03T03:50:48.390Z,99.99
2022-09-03T03:51:48.637Z,99.99
2022-09-03T03:52:48.614Z,99.99
2022-09-03T03:53:48.600Z,99.99
2022-09-03T03:54:48.583Z,99.99
2022-09-03T03:55:48.315Z,99.99
2022-09-03T03:56:57.917Z,99.99
2022-09-03T03:57:48.542Z,99.99
2022-09-03T03:58:48.527Z,99.99
2022-09-03T03:59:48.519Z,99.99
2022-09-03T04:00:48.494Z,99.99
2022-09-03T04:01:48.611Z,99.99
2022-09-03T04:02:48.322Z,99.99
2022-09-03T04:03:48.462Z,99.99
2022-09-03T04:04:48.442Z,99.99
2022-09-03T04:05:50.826Z,99.99
2022-09-03T04:06:48.155Z,99.99
2022-09-03T04:07:48.151Z,99.99
2022-09-03T04:08:49.681Z,99.99
2022-09-03T04:09:48.376Z,99.99
2022-09-03T04:10:48.359Z,99.99
2022-09-03T04:11:48.348Z,99.99
2022-09-03T04:12:48.076Z,99.99
2022-09-03T04:13:48.065Z,99.99
2022-09-03T04:14:48.050Z,99.99
2022-09-03T04:15:48.293Z,99.99
2022-09-03T04:16:48.177Z,99.99
2022-09-03T04:17:48.011Z,99.99
2022-09-03T04:18:48.267Z,99.99
2022-09-03T04:19:47.985Z,99.99
2022-09-03T04:20:48.226Z,99.99
2022-09-03T04:21:48.215Z,99.99
2022-09-03T04:22:53.750Z,99.99
2022-09-03T04:23:47.962Z,99.99
2022-09-03T04:24:48.173Z,99.99
2022-09-03T04:25:48.164Z,99.99
2022-09-03T04:26:48.146Z,99.99
2022-09-03T04:27:48.140Z,99.99
2022-09-03T04:28:47.869Z,99.99
2022-09-03T04:29:48.106Z,99.99
2022-09-03T04:30:51.624Z,99.99
2022-09-03T04:31:48.085Z,99.99
2022-09-03T04:32:48.069Z,99.99
2022-09-03T04:33:47.804Z,99.99
2022-09-03T04:34:47.787Z,99.99
2022-09-03T04:35:47.776Z,99.99
2022-09-03T04:36:52.889Z,99.99
2022-09-03T04:37:48.009Z,99.99
2022-09-03T04:38:47.737Z,99.99
2022-09-03T04:39:48.101Z,99.99
2022-09-03T04:40:47.711Z,99.99
2022-09-03T04:41:47.954Z,99.99
2022-09-03T04:42:47.687Z,99.99
2022-09-03T04:43:53.518Z,99.99
2022-09-03T04:44:47.915Z,99.99
2022-09-03T04:45:47.823Z,99.99
2022-09-03T04:46:47.945Z,99.99
2022-09-03T04:47:47.875Z,99.99
2022-09-03T04:48:47.611Z,99.99
2022-09-03T04:49:47.593Z,99.99
2022-09-03T04:50:47.843Z,99.99
2022-09-03T04:51:47.910Z,99.99
2022-09-03T04:52:47.817Z,99.99
2022-09-03T04:53:47.805Z,99.99
2022-09-03T04:54:47.532Z,99.99
2022-09-03T04:55:47.773Z,99.99
2022-09-03T04:56:47.763Z,99.99
2022-09-03T04:57:47.493Z,99.99
2022-09-03T04:58:49.276Z,99.99
2022-09-03T04:59:47.471Z,99.99
2022-09-03T05:00:47.830Z,99.99
2022-09-03T05:01:47.491Z,99.99
2022-09-03T05:02:47.690Z,99.99
2022-09-03T05:03:47.673Z,99.99
2022-09-03T05:04:47.669Z,99.99
2022-09-03T05:05:52.519Z,99.99
2022-09-03T05:06:47.638Z,99.99
2022-09-03T05:07:47.625Z,99.99
2022-09-03T05:08:47.614Z,99.99
2022-09-03T05:09:47.343Z,99.99
2022-09-03T05:10:47.331Z,99.99
2022-09-03T05:11:47.572Z,99.99
2022-09-03T05:12:47.316Z,99.99
2022-09-03T05:13:47.550Z,99.99
2022-09-03T05:14:47.282Z,99.99
2022-09-03T05:15:47.524Z,99.99
2022-09-03T05:16:55.709Z,99.99
2022-09-03T05:17:47.501Z,99.99
2022-09-03T05:18:47.558Z,99.99
2022-09-03T05:19:47.477Z,99.99
2022-09-03T05:20:47.206Z,99.99
2022-09-03T05:21:47.193Z,99.99
2022-09-03T05:22:47.441Z,99.99
2022-09-03T05:23:47.427Z,99.99
2022-09-03T05:24:47.416Z,99.99
2022-09-03T05:25:47.147Z,99.99
2022-09-03T05:26:47.394Z,99.99
2022-09-03T05:27:47.377Z,99.99
2022-09-03T05:28:47.368Z,99.99
2022-09-03T05:29:47.104Z,99.99
2022-09-03T05:30:47.145Z,99.99
2022-09-03T05:31:47.454Z,99.99
2022-09-03T05:32:47.062Z,99.99
2022-09-03T05:33:47.309Z,99.99
2022-09-03T05:34:47.035Z,99.99
2022-09-03T05:35:47.282Z,99.99
2022-09-03T05:36:47.025Z,99.99
2022-09-03T05:37:47.263Z,99.99
2022-09-03T05:38:47.243Z,99.99
2022-09-03T05:39:47.357Z,99.99
2022-09-03T05:40:47.221Z,99.99
2022-09-03T05:41:47.216Z,99.99
2022-09-03T05:42:47.200Z,99.99
2022-09-03T05:43:46.932Z,99.99
2022-09-03T05:44:46.918Z,99.99
2022-09-03T05:45:47.306Z,99.99
2022-09-03T05:46:46.894Z,99.99
2022-09-03T05:47:47.143Z,99.99
2022-09-03T05:48:46.872Z,99.99
2022-09-03T05:49:47.117Z,99.99
2022-09-03T05:50:46.846Z,99.99
2022-09-03T05:51:47.095Z,99.99
2022-09-03T05:52:47.087Z,99.99
2022-09-03T05:53:47.074Z,99.99
2022-09-03T05:54:47.069Z,99.99
2022-09-03T05:55:46.794Z,99.99
2022-09-03T05:56:47.034Z,99.99
2022-09-03T05:57:46.769Z,99.99
2022-09-03T05:58:47.013Z,99.99
2022-09-03T05:59:47.007Z,99.99
2022-09-03T06:00:46.735Z,99.99
2022-09-03T06:01:56.832Z,99.99
2022-09-03T06:02:47.290Z,99.99
2022-09-03T06:03:47.218Z,99.99
2022-09-03T06:04:46.686Z,99.99
2022-09-03T06:05:48.316Z,99.99
2022-09-03T06:06:46.925Z,99.99
2022-09-03T06:07:46.914Z,99.99
2022-09-03T06:08:46.903Z,99.99
2022-09-03T06:09:46.891Z,99.99
2022-09-03T06:10:47.266Z,99.99
2022-09-03T06:11:48.579Z,99.99
2022-09-03T06:12:47.378Z,99.99
2022-09-03T06:13:46.849Z,99.99
2022-09-03T06:14:46.578Z,99.99
2022-09-03T06:15:46.826Z,99.99
2022-09-03T06:16:46.706Z,99.99
2022-09-03T06:17:46.803Z,99.99
2022-09-03T06:18:46.787Z,99.99
2022-09-03T06:19:46.530Z,99.99
2022-09-03T06:20:46.514Z,99.99
2022-09-03T06:21:46.760Z,99.99
2022-09-03T06:22:46.750Z,99.99
2022-09-03T06:23:49.203Z,99.99
2022-09-03T06:24:46.729Z,99.99
2022-09-03T06:25:46.462Z,99.99
2022-09-03T06:26:46.711Z,99.99
2022-09-03T06:27:46.437Z,98.94
2022-09-03T06:28:46.429Z,99.04
2022-09-03T06:29:46.416Z,97.61
2022-09-03T06:30:47.499Z,97.22
2022-09-03T06:31:46.850Z,96.56
2022-09-03T06:32:46.388Z,96.27
2022-09-03T06:33:46.378Z,95.89
2022-09-03T06:34:46.626Z,95.79
2022-09-03T06:35:46.616Z,95.89
2022-09-03T06:36:46.626Z,95.22
2022-09-03T06:37:46.591Z,95.41
2022-09-03T06:38:46.588Z,95.79
2022-09-03T06:39:46.450Z,95.12
2022-09-03T06:40:46.565Z,95.12
2022-09-03T06:41:46.553Z,95.27
2022-09-03T06:42:48.743Z,95.12
2022-09-03T06:43:46.273Z,95.22
2022-09-03T06:44:46.524Z,95.89
2022-09-03T06:45:46.410Z,95.22
2022-09-03T06:46:46.515Z,95.32
2022-09-03T06:47:46.489Z,95.03
2022-09-03T06:48:48.110Z,94.93
2022-09-03T06:49:46.477Z,95.22
2022-09-03T06:50:46.205Z,94.74
2022-09-03T06:51:46.458Z,95.12
2022-09-03T06:52:46.184Z,94.93
2022-09-03T06:53:46.429Z,94.36
2022-09-03T06:54:46.427Z,94.56
2022-09-03T06:55:46.407Z,94.56
2022-09-03T06:56:46.522Z,94.46
2022-09-03T06:57:46.375Z,94.27
2022-09-03T06:58:46.122Z,94.07
2022-09-03T06:59:46.109Z,93.6
2022-09-03T07:00:46.757Z,93.51
2022-09-03T07:01:47.917Z,93.41
2022-09-03T07:02:47.526Z,93.02
2022-09-03T07:03:46.326Z,93.31
2022-09-03T07:04:46.677Z,93.79
2022-09-03T07:05:46.306Z,94.07
2022-09-03T07:06:46.297Z,96.08
2022-09-03T07:07:46.032Z,95.89
2022-09-03T07:08:46.279Z,96.42
2022-09-03T07:09:50.591Z,96.22
2022-09-03T07:10:46.266Z,95.46
2022-09-03T07:11:45.990Z,90.53
2022-09-03T07:12:46.237Z,86.41
2022-09-03T07:13:45.970Z,83.25
2022-09-03T07:14:46.220Z,78.05
2022-09-03T07:15:46.386Z,75.4
2022-09-03T07:16:46.042Z,73.04
2022-09-03T07:17:46.194Z,71.16
2022-09-03T07:18:45.927Z,70.17
2022-09-03T07:19:45.917Z,69.84
2022-09-03T07:20:46.161Z,70.57
2022-09-03T07:21:51.378Z,71.69
2022-09-03T07:22:46.148Z,72.27
2022-09-03T07:23:46.139Z,72.71
2022-09-03T07:24:45.872Z,73.63
2022-09-03T07:25:46.121Z,74.11
2022-09-03T07:26:45.855Z,74.26
2022-09-03T07:27:45.857Z,75.31
2022-09-03T07:28:46.103Z,75.79
2022-09-03T07:29:45.828Z,76.27
2022-09-03T07:30:46.077Z,76.62
2022-09-03T07:31:46.253Z,76.9
2022-09-03T07:32:46.060Z,76.9
2022-09-03T07:33:45.799Z,77.38
2022-09-03T07:34:46.044Z,77.86
2022-09-03T07:35:45.777Z,77.48
2022-09-03T07:36:46.024Z,77.38
2022-09-03T07:37:46.027Z,77.38
2022-09-03T07:38:46.009Z,77
2022-09-03T07:39:46.138Z,76.9
2022-09-03T07:40:45.994Z,76.62
2022-09-03T07:41:45.730Z,77.09
2022-09-03T07:42:45.718Z,77
2022-09-03T07:43:45.968Z,76.86
2022-09-03T07:44:45.959Z,76.04
2022-09-03T07:45:45.952Z,76.33
2022-09-03T07:46:46.058Z,75.95
2022-09-03T07:47:45.996Z,75.18
2022-09-03T07:48:45.923Z,74.51
2022-09-03T07:49:50.824Z,73.27
2022-09-03T07:50:45.910Z,73.65
2022-09-03T07:51:45.649Z,72.69
2022-09-03T07:52:45.894Z,71.97
2022-09-03T07:53:45.893Z,71.68
2022-09-03T07:54:45.624Z,71.11
2022-09-03T07:55:45.612Z,70.72
2022-09-03T07:56:45.859Z,69.6
2022-09-03T07:57:45.596Z,68.84
2022-09-03T07:58:45.844Z,67.02
2022-09-03T07:59:45.582Z,67.5
2022-09-03T08:00:46.016Z,67.41
2022-09-03T08:01:45.825Z,68.21
2022-09-03T08:02:48.589Z,68.11
2022-09-03T08:03:45.643Z,67.63
2022-09-03T08:04:45.547Z,68.21
2022-09-03T08:05:45.793Z,68.62
2022-09-03T08:06:45.813Z,69.1
2022-09-03T08:07:45.777Z,68.33
2022-09-03T08:08:45.769Z,69.04
2022-09-03T08:09:45.760Z,69.52
2022-09-03T08:10:45.503Z,70
2022-09-03T08:11:45.551Z,68.66
2022-09-03T08:12:45.744Z,67.63
2022-09-03T08:13:45.487Z,67.35
2022-09-03T08:14:45.736Z,66.96
2022-09-03T08:15:45.945Z,66
2022-09-03T08:16:45.720Z,64.95
2022-09-03T08:17:45.452Z,64.76
2022-09-03T08:18:45.449Z,64.63
2022-09-03T08:19:45.438Z,66.45
2022-09-03T08:20:45.527Z,66.16
2022-09-03T08:21:45.430Z,66.16
2022-09-03T08:22:45.480Z,66.32
2022-09-03T08:23:45.412Z,65.01
2022-09-03T08:24:45.408Z,65.01
2022-09-03T08:25:45.665Z,64.92
2022-09-03T08:26:52.501Z,64.92
2022-09-03T08:27:45.391Z,64.85
2022-09-03T08:28:45.814Z,64.09
2022-09-03T08:29:45.634Z,63.6
2022-09-03T08:30:45.629Z,62.68
2022-09-03T08:31:45.892Z,61.72
2022-09-03T08:32:45.401Z,60.75
2022-09-03T08:33:45.605Z,60.02
2022-09-03T08:34:45.607Z,58.77
2022-09-03T08:35:45.387Z,59.06
2022-09-03T08:36:45.336Z,60.69
2022-09-03T08:37:45.584Z,59.92
2022-09-03T08:38:45.658Z,58.61
2022-09-03T08:39:45.741Z,58.13
2022-09-03T08:40:45.315Z,56.98
2022-09-03T08:41:45.304Z,56.4
2022-09-03T08:42:45.558Z,55.34
2022-09-03T08:43:45.296Z,54.57
2022-09-03T08:44:45.288Z,55.15
2022-09-03T08:45:45.317Z,56.4
2022-09-03T08:46:45.426Z,57.36
2022-09-03T08:47:45.269Z,56.91
2022-09-03T08:48:45.526Z,57.58
2022-09-03T08:49:45.262Z,57.2
2022-09-03T08:50:45.268Z,55.27
2022-09-03T08:51:45.505Z,54.5
2022-09-03T08:52:45.502Z,54.31
2022-09-03T08:53:45.496Z,54.41
2022-09-03T08:54:45.491Z,54.79
2022-09-03T08:55:45.285Z,54.31
2022-09-03T08:56:45.479Z,54.31
2022-09-03T08:57:45.220Z,53.74
2022-09-03T08:58:45.212Z,54.5
2022-09-03T08:59:45.471Z,54.41
2022-09-03T09:00:45.459Z,53.96
2022-09-03T09:01:45.767Z,54.14
2022-09-03T09:02:45.583Z,52.61
2022-09-03T09:03:45.445Z,51.64
2022-09-03T09:04:45.440Z,51.14
2022-09-03T09:05:45.486Z,51.33
2022-09-03T09:06:45.435Z,52.2
2022-09-03T09:07:45.426Z,51.84
2022-09-03T09:08:45.420Z,51.93
2022-09-03T09:09:45.160Z,51.55
2022-09-03T09:10:45.417Z,50.78
2022-09-03T09:11:45.408Z,50.78
2022-09-03T09:12:49.344Z,50.3
2022-09-03T09:13:45.396Z,50.3
2022-09-03T09:14:45.128Z,49.72
2022-09-03T09:15:45.260Z,48.85
2022-09-03T09:16:45.382Z,48.28
2022-09-03T09:17:45.124Z,48.57
2022-09-03T09:18:45.372Z,49.15
2022-09-03T09:19:45.368Z,49.15
2022-09-03T09:20:45.107Z,49.91
2022-09-03T09:21:45.392Z,50.01
2022-09-03T09:22:49.508Z,50.9
2022-09-03T09:23:45.092Z,50.13
2022-09-03T09:24:45.084Z,50.23
2022-09-03T09:25:45.118Z,49.74
2022-09-03T09:26:45.075Z,49.55
2022-09-03T09:27:45.332Z,49.74
2022-09-03T09:28:45.064Z,49.27
2022-09-03T09:29:45.321Z,50.13
2022-09-03T09:30:45.322Z,50.13
2022-09-03T09:31:45.112Z,49.87
2022-09-03T09:32:45.046Z,49.96
2022-09-03T09:33:45.300Z,50.06
2022-09-03T09:34:48.629Z,51.7
2022-09-03T09:35:45.292Z,50.95
2022-09-03T09:36:45.288Z,49.99
2022-09-03T09:37:45.285Z,49.51
2022-09-03T09:38:45.280Z,49.89
2022-09-03T09:39:45.398Z,49.02
2022-09-03T09:40:47.069Z,48.35
2022-09-03T09:41:45.014Z,47.49
2022-09-03T09:42:45.005Z,47.97
2022-09-03T09:43:45.264Z,47.58
2022-09-03T09:44:44.997Z,46.62
2022-09-03T09:45:45.251Z,46.14
2022-09-03T09:46:45.125Z,45.75
2022-09-03T09:47:45.248Z,44.69
2022-09-03T09:48:45.242Z,45.65
2022-09-03T09:49:44.976Z,44.98
2022-09-03T09:50:45.235Z,44.79
2022-09-03T09:51:44.969Z,45.94
2022-09-03T09:52:45.226Z,46.14
2022-09-03T09:53:45.220Z,45.77
2022-09-03T09:54:45.219Z,45
2022-09-03T09:55:44.977Z,45.48
2022-09-03T09:56:44.954Z,46.93
2022-09-03T09:57:45.201Z,46.35
2022-09-03T09:58:45.201Z,44.71
2022-09-03T09:59:44.938Z,44.21
2022-09-03T10:00:44.960Z,45.07
2022-09-03T10:01:45.052Z,45.94
2022-09-03T10:02:45.022Z,46.23
2022-09-03T10:03:45.180Z,46.04
2022-09-03T10:04:45.180Z,46.81
2022-09-03T10:05:45.286Z,46.52
2022-09-03T10:06:45.171Z,46.14
2022-09-03T10:07:45.164Z,45.36
2022-09-03T10:08:45.166Z,45.75
2022-09-03T10:09:45.158Z,44.4
2022-09-03T10:10:45.156Z,44.21
2022-09-03T10:11:44.895Z,45.17
2022-09-03T10:12:44.892Z,45.94
2022-09-03T10:13:45.145Z,46.81
2022-09-03T10:14:45.139Z,46.71
2022-09-03T10:15:45.360Z,46.4
2022-09-03T10:16:45.151Z,45.65
2022-09-03T10:17:45.131Z,46.04
2022-09-03T10:18:45.134Z,46.42
2022-09-03T10:19:44.867Z,47.87
2022-09-03T10:20:44.864Z,47.77
2022-09-03T10:21:45.118Z,47.39
2022-09-03T10:22:59.227Z,46.81
2022-09-03T10:23:45.104Z,46.42
2022-09-03T10:24:45.111Z,45.75
2022-09-03T10:25:45.103Z,45.27
2022-09-03T10:26:45.097Z,46.04
2022-09-03T10:27:45.087Z,46.04
2022-09-03T10:28:44.877Z,45.75
2022-09-03T10:29:44.824Z,45.46
2022-09-03T10:30:45.170Z,44.4
2022-09-03T10:31:45.075Z,44.4
2022-09-03T10:32:50.696Z,43.92
2022-09-03T10:33:45.067Z,43.73
2022-09-03T10:34:44.812Z,44.11
2022-09-03T10:35:45.057Z,44.21
2022-09-03T10:36:44.805Z,44.31
2022-09-03T10:37:45.056Z,44.69
2022-09-03T10:38:45.054Z,45.56
2022-09-03T10:39:48.867Z,45.07
2022-09-03T10:40:45.043Z,44.69
2022-09-03T10:41:45.039Z,46.04
2022-09-03T10:42:44.779Z,46.52
2022-09-03T10:43:45.031Z,45.65
2022-09-03T10:44:45.031Z,44.31
2022-09-03T10:45:45.028Z,43.63
2022-09-03T10:46:45.187Z,43.05
2022-09-03T10:47:45.015Z,43.44
2022-09-03T10:48:45.017Z,44.02
2022-09-03T10:49:44.750Z,43.05
2022-09-03T10:50:45.000Z,42.67
2022-09-03T10:51:49.895Z,42.96
2022-09-03T10:52:44.994Z,43.15
2022-09-03T10:53:44.991Z,43.15
2022-09-03T10:54:44.986Z,43.34
2022-09-03T10:55:44.990Z,44.21
2022-09-03T10:56:44.981Z,46.23
2022-09-03T10:57:44.995Z,44.79
2022-09-03T10:58:44.971Z,44.32
2022-09-03T10:59:44.970Z,44.02
2022-09-03T11:00:44.963Z,45.75
2022-09-03T11:01:44.799Z,46.23
2022-09-03T11:02:45.099Z,45.58
2022-09-03T11:03:44.695Z,44.71
2022-09-03T11:04:44.696Z,43.37
2022-09-03T11:05:44.690Z,43.07
2022-09-03T11:06:44.941Z,43.15
2022-09-03T11:07:44.939Z,43.17
2022-09-03T11:08:44.933Z,43.07
2022-09-03T11:09:44.947Z,43.46
2022-09-03T11:10:44.668Z,44.04
2022-09-03T11:11:44.678Z,43.65
2022-09-03T11:12:44.728Z,43.46
2022-09-03T11:13:44.661Z,43.27
2022-09-03T11:14:44.920Z,44.23
2022-09-03T11:15:44.996Z,43.07
2022-09-03T11:16:44.907Z,42.86
2022-09-03T11:17:44.647Z,42.57
2022-09-03T11:18:46.234Z,43.24
2022-09-03T11:19:44.899Z,43.24
2022-09-03T11:20:44.639Z,43.82
2022-09-03T11:21:44.637Z,44.42
2022-09-03T11:22:44.625Z,44.04
2022-09-03T11:23:45.328Z,43.27
2022-09-03T11:24:44.881Z,43.85
2022-09-03T11:25:44.874Z,44.13
2022-09-03T11:26:44.872Z,43.07
2022-09-03T11:27:44.866Z,42.97
2022-09-03T11:28:44.861Z,41.92
2022-09-03T11:29:44.865Z,41.05
2022-09-03T11:30:44.703Z,40.86
2022-09-03T11:31:44.850Z,41.51
2022-09-03T11:32:44.851Z,41.8
2022-09-03T11:33:44.597Z,43.05
2022-09-03T11:34:44.842Z,42.67
2022-09-03T11:35:44.583Z,42.47
2022-09-03T11:36:50.324Z,43.63
2022-09-03T11:37:44.831Z,43.73
2022-09-03T11:38:44.572Z,42.86
2022-09-03T11:39:44.705Z,43.05
2022-09-03T11:40:44.821Z,44.11
2022-09-03T11:41:44.814Z,44.13
2022-09-03T11:42:44.817Z,43.55
2022-09-03T11:43:44.808Z,42.3
2022-09-03T11:44:54.169Z,42.96
2022-09-03T11:45:44.748Z,42.38
2022-09-03T11:46:44.801Z,41.61
2022-09-03T11:47:44.794Z,41.99
2022-09-03T11:48:44.540Z,42.19
2022-09-03T11:49:44.785Z,42.67
2022-09-03T11:50:44.789Z,43.15
2022-09-03T11:51:44.524Z,44.11
2022-09-03T11:52:44.779Z,44.11
2022-09-03T11:53:45.110Z,44.69
2022-09-03T11:54:44.514Z,44.02
2022-09-03T11:55:45.612Z,43.73
2022-09-03T11:56:44.771Z,44.02
2022-09-03T11:57:44.756Z,43.44
2022-09-03T11:58:44.755Z,43.15
2022-09-03T11:59:44.747Z,43.15
2022-09-03T12:00:44.496Z,42.76
2022-09-03T12:01:44.746Z,42.57
2022-09-03T12:02:44.877Z,42.67
2022-09-03T12:03:45.316Z,42.76
2022-09-03T12:04:44.913Z,43.05
2022-09-03T12:05:44.472Z,43.44
2022-09-03T12:06:44.728Z,43.34
2022-09-03T12:07:44.719Z,43.44
2022-09-03T12:08:44.463Z,44.31
2022-09-03T12:09:45.932Z,44.11
2022-09-03T12:10:44.458Z,44.02
2022-09-03T12:11:44.452Z,43.82
2022-09-03T12:12:44.707Z,43.63
2022-09-03T12:13:44.703Z,43.73
2022-09-03T12:14:44.440Z,44.21
2022-09-03T12:15:44.585Z,43.63
2022-09-03T12:16:44.436Z,43.15
2022-09-03T12:17:44.694Z,42.96
2022-09-03T12:18:44.690Z,42.76
2022-09-03T12:19:44.680Z,43.34
2022-09-03T12:20:44.677Z,44.02
2022-09-03T12:21:44.678Z,44.02
2022-09-03T12:22:44.643Z,44.59
2022-09-03T12:23:44.415Z,46.04
2022-09-03T12:24:44.405Z,45.17
2022-09-03T12:25:44.400Z,44.59
2022-09-03T12:26:44.394Z,44.21
2022-09-03T12:27:44.728Z,44.59
2022-09-03T12:28:47.222Z,43.92
2022-09-03T12:29:44.387Z,44.11
2022-09-03T12:30:44.781Z,44.11
2022-09-03T12:31:45.596Z,44.4
2022-09-03T12:32:44.679Z,44.79
2022-09-03T12:33:44.630Z,44.98
2022-09-03T12:34:44.367Z,46.33
2022-09-03T12:36:14.357Z,46.04
2022-09-03T12:36:44.360Z,45.65
2022-09-03T12:38:18.437Z,45.65
2022-09-03T12:39:13.226Z,46.33
2022-09-03T12:40:10.597Z,46.52
2022-09-03T12:41:29.529Z,45.68
2022-09-03T12:42:07.957Z,45.27
2022-09-03T12:43:39.133Z,44.21
2022-09-03T12:44:07.949Z,43.92
2022-09-03T12:45:08.205Z,43.92
2022-09-03T12:46:15.936Z,44.69
2022-09-03T12:47:38.349Z,44.69
2022-09-03T12:48:08.324Z,45.17
2022-09-03T12:49:37.924Z,45.65
2022-09-03T12:50:08.190Z,46.14
2022-09-03T12:51:56.852Z,46.71
2022-09-03T12:52:12.545Z,46.91
2022-09-03T12:53:12.542Z,47.19
2022-09-03T12:54:12.542Z,46.78
2022-09-03T12:55:12.769Z,46.88
2022-09-03T12:56:13.228Z,46.98
2022-09-03T12:57:13.163Z,47.08
2022-09-03T12:58:15.935Z,46.95
2022-09-03T12:59:12.517Z,47.82
2022-09-03T13:00:12.568Z,47.05
2022-09-03T13:01:12.713Z,47.08
2022-09-03T13:02:12.760Z,47.08
2022-09-03T13:03:12.246Z,46.98
2022-09-03T13:04:12.775Z,47.08
2022-09-03T13:05:12.498Z,46.71
2022-09-03T13:06:12.240Z,46.23
2022-09-03T13:07:12.489Z,46.04
2022-09-03T13:08:12.230Z,46.14
2022-09-03T13:09:12.227Z,46.14
2022-09-03T13:10:12.224Z,46.42
2022-09-03T13:11:12.217Z,46.62